| time (UTC) | temp F | wind direction | speed knots | gust knots | rain 1hr in | rain 24hr in | rain mn in | humidity % | barometer mb |
| 20260510044950 | 62 | 260 | 5.2 | 6.1 | 0.00 | 0.00 | 0.00 | 67 | 1026.4 |
| 20260510044447 | 63 | 275 | 3.5 | 6.1 | 0.00 | 0.00 | 0.00 | 65 | 1026.6 |
| 20260510043944 | 62 | 272 | 3.5 | 6.1 | 0.00 | 0.00 | 0.00 | 66 | 1026.6 |
| 20260510043440 | 61 | 249 | 4.3 | 5.2 | 0.00 | 0.00 | 0.00 | 67 | 1026.6 |
| 20260510042938 | 62 | 289 | 3.5 | 5.2 | 0.00 | 0.00 | 0.00 | 67 | 1026.6 |
| 20260510042434 | 61 | 268 | 2.6 | 4.3 | 0.00 | 0.00 | 0.00 | 67 | 1026.5 |
| 20260510041930 | 61 | 256 | 3.5 | 5.2 | 0.00 | 0.00 | 0.00 | 67 | 1026.7 |
| 20260510041427 | 62 | 263 | 5.2 | 6.1 | 0.00 | 0.00 | 0.00 | 66 | 1026.6 |
| 20260510040925 | 62 | 266 | 3.5 | 5.2 | 0.00 | 0.00 | 0.00 | 67 | 1026.5 |
| 20260510040422 | 62 | 280 | 3.5 | 4.3 | 0.00 | 0.00 | 0.00 | 66 | 1026.6 |
| 20260510035917 | 63 | 249 | 5.2 | 7.0 | 0.00 | 0.00 | 0.00 | 65 | 1026.7 |
| 20260510035414 | 63 | 267 | 4.3 | 6.1 | 0.00 | 0.00 | 0.00 | 64 | 1026.7 |
| 20260510034908 | 64 | 269 | 3.5 | 5.2 | 0.00 | 0.00 | 0.00 | 62 | 1026.7 |
| 20260510034407 | 62 | 282 | 2.6 | 4.3 | 0.00 | 0.00 | 0.00 | 64 | 1026.8 |
| 20260510033902 | 62 | 264 | 4.3 | 5.2 | 0.00 | 0.00 | 0.00 | 65 | 1026.8 |
| 20260510033359 | 64 | 275 | 2.6 | 5.2 | 0.00 | 0.00 | 0.00 | 64 | 1026.8 |
| 20260510032855 | 63 | 299 | 2.6 | 6.1 | 0.00 | 0.00 | 0.00 | 63 | 1026.9 |
| 20260510032353 | 63 | 315 | 4.3 | 5.2 | 0.00 | 0.00 | 0.00 | 64 | 1027.0 |
| 20260510031848 | 62 | 312 | 2.6 | 2.6 | 0.00 | 0.00 | 0.00 | 63 | 1027.0 |
| 20260510031344 | 62 | 279 | 2.6 | 2.6 | 0.00 | 0.00 | 0.00 | 64 | 1026.9 |
| 20260510030843 | 61 | 263 | 1.7 | 4.3 | 0.00 | 0.00 | 0.00 | 65 | 1027.1 |
| 20260510030340 | 61 | 281 | 1.7 | 2.6 | 0.00 | 0.00 | 0.00 | 66 | 1027.3 |
| 20260510025838 | 62 | 294 | 1.7 | 2.6 | 0.00 | 0.00 | 0.00 | 66 | 1027.2 |
| 20260510025335 | 62 | 293 | 1.7 | 1.7 | 0.00 | 0.00 | 0.00 | 65 | 1027.4 |
| 20260510024831 | 62 | 284 | 2.6 | 2.6 | 0.00 | 0.00 | 0.00 | 65 | 1027.3 |
| 20260510024329 | 62 | 308 | 1.7 | 1.7 | 0.00 | 0.00 | 0.00 | 64 | 1027.6 |
| 20260510023825 | 62 | 291 | 1.7 | 2.6 | 0.00 | 0.00 | 0.00 | 65 | 1027.4 |
| 20260510023321 | 62 | 284 | 2.6 | 2.6 | 0.00 | 0.00 | 0.00 | 66 | 1027.7 |
| 20260510022819 | 62 | 307 | 2.6 | 4.3 | 0.00 | 0.00 | 0.00 | 65 | 1027.8 |
| 20260510022317 | 61 | 310 | 2.6 | 4.3 | 0.00 | 0.00 | 0.00 | 66 | 1027.6 |
| 20260510021817 | 62 | 309 | 0.9 | 2.6 | 0.00 | 0.00 | 0.00 | 66 | 1027.7 |
| 20260510021315 | 61 | 308 | 1.7 | 1.7 | 0.00 | 0.00 | 0.00 | 66 | 1027.8 |
| 20260510020811 | 61 | 323 | 1.7 | 4.3 | 0.00 | 0.00 | 0.00 | 66 | 1028.0 |
| 20260510020306 | 61 | 329 | 2.6 | 4.3 | 0.00 | 0.00 | 0.00 | 66 | 1028.1 |
| 20260510015802 | 61 | 326 | 2.6 | 5.2 | 0.00 | 0.00 | 0.00 | 67 | 1028.3 |
| 20260510015258 | 61 | 341 | 3.5 | 4.3 | 0.00 | 0.00 | 0.00 | 67 | 1028.3 |
| 20260510014753 | 61 | 348 | 2.6 | 5.2 | 0.00 | 0.00 | 0.00 | 67 | 1028.3 |
| 20260510014251 | 61 | 319 | 2.6 | 5.2 | 0.00 | 0.00 | 0.00 | 67 | 1028.3 |
| 20260510013747 | 61 | 349 | 4.3 | 5.2 | 0.00 | 0.00 | 0.00 | 66 | 1028.3 |
| 20260510013242 | 61 | 6 | 1.7 | 5.2 | 0.00 | 0.00 | 0.00 | 66 | 1028.5 |
| 20260510012737 | 61 | 350 | 3.5 | 4.3 | 0.00 | 0.00 | 0.00 | 67 | 1028.5 |
| 20260510012233 | 61 | 34 | 6.1 | 7.0 | 0.00 | 0.00 | 0.00 | 67 | 1028.3 |
| 20260510011732 | 61 | 355 | 4.3 | 5.2 | 0.00 | 0.00 | 0.00 | 67 | 1028.3 |
| 20260510011228 | 61 | 359 | 2.6 | 5.2 | 0.00 | 0.00 | 0.00 | 69 | 1028.3 |
| 20260510010725 | 60 | 344 | 3.5 | 4.3 | 0.00 | 0.00 | 0.00 | 69 | 1028.2 |
| 20260510010221 | 60 | 358 | 4.3 | 6.1 | 0.00 | 0.00 | 0.00 | 70 | 1028.2 |
| 20260510005718 | 60 | 3 | 3.5 | 4.3 | 0.00 | 0.00 | 0.00 | 71 | 1028.3 |
| 20260510005215 | 60 | 5 | 1.7 | 4.3 | 0.00 | 0.00 | 0.00 | 71 | 1028.3 |
| 20260510004713 | 60 | 10 | 4.3 | 6.1 | 0.00 | 0.00 | 0.00 | 72 | 1028.4 |
| 20260510004211 | 60 | 345 | 0.9 | 2.6 | 0.00 | 0.00 | 0.00 | 73 | 1028.4 |
| 20260510003708 | 59 | 10 | 1.7 | 1.7 | 0.00 | 0.00 | 0.00 | 73 | 1028.5 |
| 20260510003158 | 59 | 18 | 1.7 | 1.7 | 0.00 | 0.00 | 0.00 | 73 | 1028.5 |
| 20260510002657 | 59 | 54 | 0.9 | 4.3 | 0.00 | 0.00 | 0.00 | 73 | 1028.4 |
| 20260510002155 | 59 | 39 | 0.9 | 2.6 | 0.00 | 0.00 | 0.00 | 73 | 1028.5 |
| 20260510001652 | 59 | 336 | 0.0 | 1.7 | 0.00 | 0.00 | 0.00 | 73 | 1028.4 |
| 20260510001150 | 59 | 32 | 0.9 | 4.3 | 0.00 | 0.00 | 0.00 | 73 | 1028.1 |
| 20260510000651 | 59 | 47 | 1.7 | 2.6 | 0.00 | 0.00 | 0.00 | 74 | 1028.6 |
| 20260510000148 | 59 | 72 | 1.7 | 4.3 | 0.00 | 0.00 | 0.00 | 74 | 1028.6 |
| 20260509235645 | 59 | 28 | 2.6 | 4.3 | 0.00 | 0.00 | 0.00 | 75 | 1028.4 |
| 20260509235141 | 59 | 0 | 0.9 | 1.7 | 0.00 | 0.00 | 0.00 | 77 | 1028.5 |
| 20260509234637 | 59 | 91 | 4.3 | 5.2 | 0.00 | 0.00 | 0.00 | 77 | 1028.3 |
| 20260509234135 | 59 | 63 | 1.7 | 4.3 | 0.00 | 0.00 | 0.00 | 78 | 1028.5 |
| 20260509233633 | 59 | 120 | 2.6 | 4.3 | 0.00 | 0.00 | 0.00 | 78 | 1028.4 |
| 20260509233130 | 59 | 111 | 3.5 | 6.1 | 0.00 | 0.00 | 0.00 | 78 | 1028.5 |
| 20260509232626 | 58 | 98 | 4.3 | 5.2 | 0.00 | 0.00 | 0.00 | 79 | 1028.5 |
| 20260509232123 | 58 | 125 | 4.3 | 5.2 | 0.00 | 0.00 | 0.00 | 80 | 1028.4 |
| 20260509231619 | 58 | 125 | 3.5 | 5.2 | 0.00 | 0.00 | 0.00 | 80 | 1028.4 |
| 20260509231117 | 57 | 123 | 2.6 | 5.2 | 0.00 | 0.00 | 0.00 | 83 | 1028.5 |
| 20260509230614 | 58 | 144 | 3.5 | 5.2 | 0.00 | 0.00 | 0.00 | 84 | 1028.1 |
| 20260509230111 | 58 | 111 | 2.6 | 5.2 | 0.00 | 0.00 | 0.00 | 84 | 1028.2 |
| 20260509225607 | 57 | 83 | 3.5 | 5.2 | 0.00 | 0.00 | 0.00 | 84 | 1028.2 |
| 20260509225102 | 57 | 111 | 2.6 | 4.3 | 0.00 | 0.00 | 0.00 | 84 | 1028.3 |
| 20260509224557 | 57 | 121 | 2.6 | 5.2 | 0.00 | 0.00 | 0.00 | 84 | 1028.1 |
| 20260509224055 | 57 | 99 | 2.6 | 5.2 | 0.00 | 0.00 | 0.00 | 84 | 1028.0 |
| 20260509223552 | 57 | 133 | 2.6 | 4.3 | 0.00 | 0.00 | 0.00 | 84 | 1027.9 |
| 20260509223050 | 57 | 99 | 3.5 | 6.1 | 0.00 | 0.00 | 0.00 | 84 | 1028.0 |
| 20260509222545 | 57 | 123 | 2.6 | 4.3 | 0.00 | 0.00 | 0.00 | 84 | 1027.8 |
| 20260509222041 | 57 | 98 | 2.6 | 5.2 | 0.00 | 0.00 | 0.00 | 85 | 1028.0 |
| 20260509221537 | 57 | 131 | 2.6 | 5.2 | 0.00 | 0.00 | 0.00 | 85 | 1027.8 |
| 20260509221033 | 57 | 126 | 2.6 | 5.2 | 0.00 | 0.00 | 0.00 | 85 | 1027.8 |
| 20260509220529 | 57 | 100 | 3.5 | 7.0 | 0.00 | 0.00 | 0.00 | 85 | 1027.9 |
| 20260509220026 | 57 | 139 | 2.6 | 4.3 | 0.00 | 0.00 | 0.00 | 85 | 1027.6 |
| 20260509215521 | 57 | 131 | 4.3 | 6.1 | 0.00 | 0.00 | 0.00 | 85 | 1027.5 |
| 20260509215019 | 57 | 137 | 4.3 | 4.3 | 0.00 | 0.00 | 0.00 | 85 | 1027.6 |
| 20260509214516 | 57 | 127 | 3.5 | 4.3 | 0.00 | 0.00 | 0.00 | 85 | 1027.7 |
| 20260509214013 | 57 | 150 | 2.6 | 4.3 | 0.00 | 0.00 | 0.00 | 85 | 1027.5 |
| 20260509213509 | 57 | 140 | 2.6 | 4.3 | 0.00 | 0.00 | 0.00 | 85 | 1027.6 |
| 20260509213006 | 57 | 113 | 2.6 | 4.3 | 0.00 | 0.00 | 0.00 | 85 | 1027.4 |
| 20260509212503 | 57 | 143 | 2.6 | 4.3 | 0.00 | 0.00 | 0.00 | 85 | 1027.1 |
| 20260509211959 | 57 | 100 | 1.7 | 4.3 | 0.00 | 0.00 | 0.00 | 85 | 1027.2 |
| 20260509211455 | 57 | 129 | 2.6 | 2.6 | 0.00 | 0.00 | 0.00 | 84 | 1027.1 |
| 20260509210952 | 57 | 87 | 1.7 | 1.7 | 0.00 | 0.00 | 0.00 | 84 | 1027.1 |
| 20260509210449 | 57 | 121 | 1.7 | 2.6 | 0.00 | 0.00 | 0.00 | 84 | 1027.1 |
| 20260509205944 | 57 | 135 | 2.6 | 2.6 | 0.00 | 0.00 | 0.00 | 83 | 1027.0 |
| 20260509205439 | 57 | 73 | 0.9 | 1.7 | 0.00 | 0.00 | 0.00 | 84 | 1027.3 |
| 20260509204935 | 57 | 146 | 0.9 | 2.6 | 0.00 | 0.00 | 0.00 | 84 | 1027.2 |
| 20260509204432 | 57 | 134 | 2.6 | 4.3 | 0.00 | 0.00 | 0.00 | 84 | 1027.1 |
| 20260509203928 | 57 | 139 | 2.6 | 2.6 | 0.00 | 0.00 | 0.00 | 84 | 1026.9 |
| 20260509203424 | 57 | 138 | 1.7 | 2.6 | 0.00 | 0.00 | 0.00 | 84 | 1026.9 |
| 20260509202922 | 57 | 137 | 2.6 | 4.3 | 0.00 | 0.00 | 0.00 | 84 | 1026.9 |
| 20260509202418 | 56 | 132 | 2.6 | 4.3 | 0.00 | 0.00 | 0.00 | 84 | 1027.0 |
| 20260509201913 | 56 | 146 | 2.6 | 2.6 | 0.00 | 0.00 | 0.00 | 84 | 1026.9 |
| 20260509201408 | 56 | 109 | 1.7 | 2.6 | 0.00 | 0.00 | 0.00 | 84 | 1027.0 |
| 20260509200906 | 56 | 160 | 1.7 | 2.6 | 0.00 | 0.00 | 0.00 | 84 | 1026.9 |
| 20260509200405 | 56 | 101 | 0.9 | 2.6 | 0.00 | 0.00 | 0.00 | 85 | 1026.8 |
| 20260509195903 | 56 | 108 | 0.9 | 1.7 | 0.00 | 0.00 | 0.00 | 85 | 1026.9 |
| 20260509195402 | 56 | 17 | 0.9 | 0.9 | 0.00 | 0.00 | 0.00 | 85 | 1026.8 |
| 20260509194857 | 56 | 143 | 1.7 | 2.6 | 0.00 | 0.00 | 0.00 | 85 | 1026.7 |
| 20260509194353 | 56 | 7 | 0.0 | 0.9 | 0.00 | 0.00 | 0.00 | 86 | 1026.6 |
| 20260509193850 | 56 | 14 | 0.0 | 0.9 | 0.00 | 0.00 | 0.00 | 86 | 1026.6 |
| 20260509193350 | 56 | 53 | 0.9 | 1.7 | 0.00 | 0.00 | 0.00 | 86 | 1026.6 |
| 20260509192846 | 56 | 46 | 0.0 | 0.9 | 0.00 | 0.00 | 0.00 | 86 | 1026.7 |
| 20260509192342 | 56 | 108 | 0.9 | 1.7 | 0.00 | 0.00 | 0.00 | 86 | 1026.5 |
| 20260509191838 | 56 | 124 | 2.6 | 2.6 | 0.00 | 0.00 | 0.00 | 87 | 1026.4 |
| 20260509191333 | 55 | 128 | 1.7 | 2.6 | 0.00 | 0.00 | 0.00 | 87 | 1026.5 |
| 20260509190830 | 55 | 147 | 2.6 | 4.3 | 0.00 | 0.00 | 0.00 | 88 | 1026.4 |
| 20260509190327 | 55 | 133 | 2.6 | 2.6 | 0.00 | 0.00 | 0.00 | 88 | 1026.3 |
| 20260509185824 | 55 | 88 | 0.9 | 1.7 | 0.00 | 0.00 | 0.00 | 89 | 1026.5 |
| 20260509185320 | 55 | 117 | 1.7 | 1.7 | 0.00 | 0.00 | 0.00 | 89 | 1026.4 |
| 20260509184818 | 55 | 49 | 0.9 | 1.7 | 0.00 | 0.00 | 0.00 | 89 | 1026.3 |
| 20260509184315 | 55 | 65 | 0.9 | 1.7 | 0.00 | 0.00 | 0.00 | 90 | 1026.3 |
| 20260509183812 | 55 | 122 | 1.7 | 1.7 | 0.00 | 0.00 | 0.00 | 90 | 1026.3 |
| 20260509183307 | 55 | 115 | 0.9 | 1.7 | 0.00 | 0.00 | 0.00 | 90 | 1026.2 |
| 20260509182803 | 54 | 114 | 0.9 | 4.3 | 0.00 | 0.00 | 0.00 | 91 | 1026.5 |
| 20260509182300 | 54 | 107 | 1.7 | 1.7 | 0.00 | 0.00 | 0.00 | 91 | 1026.1 |
| 20260509181757 | 54 | 91 | 0.9 | 1.7 | 0.00 | 0.00 | 0.00 | 91 | 1026.2 |
| 20260509181255 | 54 | 54 | 0.9 | 1.7 | 0.00 | 0.00 | 0.00 | 91 | 1026.1 |
| 20260509180752 | 54 | 1 | 0.9 | 1.7 | 0.00 | 0.00 | 0.00 | 91 | 1026.3 |
| 20260509180248 | 54 | 342 | 0.0 | 0.0 | 0.00 | 0.00 | 0.00 | 91 | 1026.2 |
| 20260509175744 | 54 | 56 | 0.9 | 1.7 | 0.00 | 0.00 | 0.00 | 91 | 1026.1 |
| 20260509175241 | 54 | 64 | 1.7 | 1.7 | 0.00 | 0.00 | 0.00 | 92 | 1026.3 |
| 20260509174737 | 54 | 54 | 1.7 | 1.7 | 0.00 | 0.00 | 0.00 | 92 | 1026.1 |
| 20260509174232 | 54 | 16 | 0.9 | 0.9 | 0.00 | 0.00 | 0.00 | 92 | 1026.0 |
| 20260509173729 | 54 | 39 | 0.9 | 1.7 | 0.00 | 0.00 | 0.00 | 92 | 1026.2 |
| 20260509173225 | 54 | 0 | 0.0 | 0.9 | 0.00 | 0.00 | 0.00 | 92 | 1026.4 |
| 20260509172721 | 54 | 2 | 0.9 | 0.9 | 0.00 | 0.00 | 0.00 | 92 | 1026.1 |
| 20260509172217 | 54 | 5 | 0.9 | 0.9 | 0.00 | 0.00 | 0.00 | 92 | 1026.2 |
| 20260509171713 | 54 | 343 | 0.0 | 0.0 | 0.00 | 0.00 | 0.00 | 92 | 1026.3 |
| 20260509171210 | 55 | 352 | 0.0 | 0.9 | 0.00 | 0.00 | 0.00 | 92 | 1026.2 |
| 20260509170706 | 55 | 1 | 0.9 | 0.9 | 0.00 | 0.00 | 0.00 | 92 | 1026.2 |
| 20260509170202 | 54 | 358 | 0.0 | 0.9 | 0.00 | 0.00 | 0.00 | 92 | 1026.3 |
| 20260509165701 | 55 | 349 | 0.0 | 0.9 | 0.00 | 0.00 | 0.00 | 92 | 1026.4 |
| 20260509165156 | 54 | 82 | 2.6 | 2.6 | 0.00 | 0.00 | 0.00 | 92 | 1026.5 |
| 20260509164652 | 54 | 84 | 1.7 | 1.7 | 0.00 | 0.00 | 0.00 | 92 | 1026.4 |
| 20260509164148 | 54 | 39 | 0.9 | 2.6 | 0.00 | 0.00 | 0.00 | 92 | 1026.4 |
| 20260509163646 | 54 | 304 | 0.0 | 0.9 | 0.00 | 0.00 | 0.00 | 92 | 1026.6 |
| 20260509163142 | 55 | 73 | 0.9 | 2.6 | 0.00 | 0.00 | 0.00 | 92 | 1026.5 |
| 20260509162639 | 55 | 75 | 1.7 | 2.6 | 0.00 | 0.00 | 0.00 | 92 | 1026.5 |
| 20260509162135 | 55 | 60 | 0.9 | 1.7 | 0.00 | 0.00 | 0.00 | 92 | 1026.6 |
| 20260509161631 | 55 | 72 | 0.0 | 2.6 | 0.00 | 0.00 | 0.00 | 92 | 1026.5 |
| 20260509161126 | 55 | 149 | 2.6 | 4.3 | 0.00 | 0.00 | 0.00 | 92 | 1026.6 |
| 20260509160622 | 55 | 113 | 3.5 | 6.1 | 0.00 | 0.00 | 0.00 | 92 | 1026.4 |
| 20260509160118 | 55 | 135 | 3.5 | 6.1 | 0.00 | 0.00 | 0.00 | 92 | 1026.6 |
| 20260509155614 | 55 | 107 | 7.0 | 7.0 | 0.00 | 0.00 | 0.00 | 92 | 1026.8 |
| 20260509155111 | 55 | 103 | 4.3 | 7.0 | 0.00 | 0.00 | 0.00 | 91 | 1026.7 |
| 20260509154606 | 55 | 129 | 5.2 | 6.1 | 0.00 | 0.00 | 0.00 | 91 | 1026.5 |
| 20260509154104 | 55 | 144 | 6.1 | 7.0 | 0.00 | 0.00 | 0.00 | 91 | 1026.7 |
| 20260509153601 | 55 | 136 | 5.2 | 6.1 | 0.00 | 0.00 | 0.00 | 91 | 1026.7 |
| 20260509153058 | 55 | 116 | 3.5 | 5.2 | 0.00 | 0.00 | 0.00 | 91 | 1026.5 |
| 20260509152554 | 55 | 138 | 4.3 | 5.2 | 0.00 | 0.00 | 0.00 | 91 | 1026.8 |
| 20260509152051 | 55 | 133 | 3.5 | 5.2 | 0.00 | 0.00 | 0.00 | 91 | 1026.7 |
| 20260509151547 | 55 | 121 | 5.2 | 5.2 | 0.00 | 0.00 | 0.00 | 91 | 1026.7 |
| 20260509151045 | 55 | 138 | 3.5 | 5.2 | 0.00 | 0.00 | 0.00 | 90 | 1026.9 |
| 20260509150543 | 55 | 143 | 3.5 | 4.3 | 0.00 | 0.00 | 0.00 | 90 | 1026.9 |
| 20260509150041 | 55 | 77 | 0.9 | 1.7 | 0.00 | 0.00 | 0.00 | 90 | 1026.8 |
| 20260509145536 | 56 | 75 | 1.7 | 1.7 | 0.00 | 0.00 | 0.00 | 90 | 1027.1 |
| 20260509145031 | 56 | 44 | 1.7 | 1.7 | 0.00 | 0.00 | 0.00 | 89 | 1026.9 |
| 20260509144528 | 56 | 81 | 1.7 | 1.7 | 0.00 | 0.00 | 0.00 | 89 | 1026.9 |
| 20260509144026 | 56 | 38 | 0.9 | 1.7 | 0.00 | 0.00 | 0.00 | 89 | 1027.0 |
| 20260509143523 | 56 | 38 | 1.7 | 1.7 | 0.00 | 0.00 | 0.00 | 89 | 1027.0 |
| 20260509143021 | 56 | 26 | 0.9 | 0.9 | 0.00 | 0.00 | 0.00 | 89 | 1027.1 |
| 20260509142516 | 56 | 40 | 1.7 | 1.7 | 0.00 | 0.00 | 0.00 | 88 | 1027.0 |
| 20260509142011 | 56 | 3 | 0.9 | 0.9 | 0.00 | 0.00 | 0.00 | 88 | 1027.2 |
| 20260509141508 | 56 | 332 | 0.0 | 0.0 | 0.00 | 0.00 | 0.00 | 88 | 1027.2 |
| 20260509141005 | 56 | 304 | 0.0 | 0.9 | 0.00 | 0.00 | 0.00 | 88 | 1027.0 |
| 20260509140501 | 56 | 303 | 0.0 | 0.0 | 0.00 | 0.00 | 0.00 | 87 | 1027.1 |
| 20260509140000 | 56 | 306 | 0.0 | 0.0 | 0.00 | 0.00 | 0.00 | 87 | 1027.0 |
| 20260509135457 | 56 | 312 | 0.0 | 0.0 | 0.00 | 0.00 | 0.00 | 87 | 1027.1 |
| 20260509134954 | 57 | 346 | 0.0 | 0.9 | 0.00 | 0.00 | 0.00 | 87 | 1027.1 |
| 20260509134451 | 57 | 36 | 0.9 | 1.7 | 0.00 | 0.00 | 0.00 | 87 | 1027.0 |
| 20260509133949 | 57 | 10 | 0.9 | 1.7 | 0.00 | 0.00 | 0.00 | 87 | 1027.0 |
| 20260509133445 | 56 | 9 | 0.9 | 0.9 | 0.00 | 0.00 | 0.00 | 87 | 1027.1 |
| 20260509132943 | 56 | 46 | 0.9 | 1.7 | 0.00 | 0.00 | 0.00 | 86 | 1027.2 |
| 20260509132441 | 57 | 257 | 0.9 | 1.7 | 0.00 | 0.00 | 0.00 | 86 | 1027.1 |
| 20260509131938 | 56 | 263 | 0.9 | 1.7 | 0.00 | 0.00 | 0.00 | 86 | 1026.8 |
| 20260509131435 | 56 | 302 | 0.9 | 0.9 | 0.00 | 0.00 | 0.00 | 86 | 1027.1 |
| 20260509130932 | 57 | 322 | 0.0 | 0.0 | 0.00 | 0.00 | 0.00 | 86 | 1027.1 |
| 20260509130427 | 57 | 319 | 0.0 | 0.9 | 0.00 | 0.00 | 0.00 | 86 | 1026.9 |
| 20260509125924 | 57 | 334 | 0.0 | 0.9 | 0.00 | 0.00 | 0.00 | 86 | 1027.3 |
| 20260509125421 | 57 | 290 | 0.9 | 0.9 | 0.00 | 0.00 | 0.00 | 86 | 1027.3 |
| 20260509124917 | 57 | 24 | 0.0 | 0.9 | 0.00 | 0.00 | 0.00 | 86 | 1027.3 |
| 20260509124414 | 57 | 77 | 1.7 | 4.3 | 0.00 | 0.00 | 0.00 | 86 | 1027.1 |
| 20260509123912 | 57 | 150 | 2.6 | 5.2 | 0.00 | 0.00 | 0.00 | 86 | 1027.2 |
| 20260509123409 | 57 | 63 | 1.7 | 2.6 | 0.00 | 0.00 | 0.00 | 86 | 1027.3 |
| 20260509122904 | 56 | 358 | 0.0 | 0.9 | 0.00 | 0.00 | 0.00 | 86 | 1027.3 |
| 20260509122401 | 56 | 17 | 0.0 | 1.7 | 0.00 | 0.00 | 0.00 | 85 | 1027.1 |
| 20260509121858 | 56 | 330 | 0.0 | 0.9 | 0.00 | 0.00 | 0.00 | 85 | 1027.2 |
| 20260509121355 | 57 | 15 | 0.9 | 1.7 | 0.00 | 0.00 | 0.00 | 85 | 1027.2 |
| 20260509120854 | 57 | 95 | 2.6 | 4.3 | 0.00 | 0.00 | 0.00 | 85 | 1026.8 |
| 20260509120351 | 57 | 128 | 2.6 | 2.6 | 0.00 | 0.00 | 0.00 | 85 | 1027.0 |
| 20260509115849 | 57 | 75 | 3.5 | 4.3 | 0.00 | 0.00 | 0.00 | 85 | 1027.1 |
| 20260509115346 | 57 | 110 | 2.6 | 7.0 | 0.00 | 0.00 | 0.00 | 85 | 1026.9 |
| 20260509114844 | 57 | 106 | 2.6 | 6.1 | 0.00 | 0.00 | 0.00 | 85 | 1027.0 |
| 20260509114342 | 56 | 137 | 1.7 | 5.2 | 0.00 | 0.00 | 0.00 | 85 | 1027.1 |
| 20260509113841 | 57 | 141 | 3.5 | 4.3 | 0.00 | 0.00 | 0.00 | 86 | 1027.0 |
| 20260509113337 | 56 | 112 | 2.6 | 2.6 | 0.00 | 0.00 | 0.00 | 86 | 1026.9 |
| 20260509112834 | 56 | 13 | 0.0 | 0.9 | 0.00 | 0.00 | 0.00 | 86 | 1027.1 |
| 20260509112331 | 56 | 109 | 2.6 | 5.2 | 0.00 | 0.00 | 0.00 | 86 | 1027.1 |
| 20260509111828 | 56 | 121 | 3.5 | 5.2 | 0.00 | 0.00 | 0.00 | 87 | 1027.1 |
| 20260509111325 | 56 | 135 | 4.3 | 5.2 | 0.00 | 0.00 | 0.00 | 87 | 1027.2 |
| 20260509110823 | 56 | 149 | 2.6 | 6.1 | 0.00 | 0.00 | 0.00 | 86 | 1027.1 |
| 20260509110319 | 56 | 94 | 4.3 | 6.1 | 0.00 | 0.00 | 0.00 | 86 | 1027.0 |
| 20260509105817 | 56 | 136 | 2.6 | 2.6 | 0.00 | 0.00 | 0.00 | 86 | 1027.1 |
| 20260509105315 | 56 | 142 | 2.6 | 5.2 | 0.00 | 0.00 | 0.00 | 86 | 1027.4 |
| 20260509104812 | 56 | 145 | 3.5 | 5.2 | 0.00 | 0.00 | 0.00 | 86 | 1027.2 |
| 20260509104308 | 56 | 153 | 3.5 | 5.2 | 0.00 | 0.00 | 0.00 | 86 | 1027.3 |
| 20260509103806 | 57 | 168 | 1.7 | 4.3 | 0.00 | 0.00 | 0.00 | 86 | 1027.2 |
| 20260509103303 | 57 | 124 | 1.7 | 2.6 | 0.00 | 0.00 | 0.00 | 86 | 1027.2 |
| 20260509102802 | 57 | 154 | 2.6 | 4.3 | 0.00 | 0.00 | 0.00 | 86 | 1027.2 |
| 20260509102259 | 57 | 160 | 1.7 | 5.2 | 0.00 | 0.00 | 0.00 | 85 | 1027.1 |
| 20260509101755 | 57 | 160 | 2.6 | 4.3 | 0.00 | 0.00 | 0.00 | 85 | 1027.1 |
| 20260509101251 | 57 | 120 | 2.6 | 4.3 | 0.00 | 0.00 | 0.00 | 85 | 1027.3 |
| 20260509100748 | 57 | 123 | 2.6 | 4.3 | 0.00 | 0.00 | 0.00 | 85 | 1027.2 |
| 20260509100246 | 57 | 145 | 2.6 | 4.3 | 0.00 | 0.00 | 0.00 | 84 | 1027.3 |
| 20260509095742 | 58 | 175 | 2.6 | 4.3 | 0.00 | 0.00 | 0.00 | 84 | 1027.3 |
| 20260509095240 | 58 | 169 | 2.6 | 2.6 | 0.00 | 0.00 | 0.00 | 84 | 1027.2 |
| 20260509094737 | 58 | 156 | 2.6 | 4.3 | 0.00 | 0.00 | 0.00 | 83 | 1027.2 |
| 20260509094233 | 58 | 152 | 3.5 | 4.3 | 0.00 | 0.00 | 0.00 | 83 | 1027.1 |
| 20260509093731 | 58 | 159 | 3.5 | 5.2 | 0.00 | 0.00 | 0.00 | 83 | 1027.2 |
| 20260509093228 | 59 | 150 | 3.5 | 6.1 | 0.00 | 0.00 | 0.00 | 82 | 1027.2 |
| 20260509092727 | 59 | 160 | 3.5 | 5.2 | 0.00 | 0.00 | 0.00 | 82 | 1027.2 |
| 20260509092224 | 59 | 143 | 4.3 | 6.1 | 0.00 | 0.00 | 0.00 | 82 | 1027.1 |
| 20260509091722 | 59 | 154 | 2.6 | 5.2 | 0.00 | 0.00 | 0.00 | 82 | 1027.0 |
| 20260509091218 | 59 | 166 | 3.5 | 6.1 | 0.00 | 0.00 | 0.00 | 82 | 1027.2 |
| 20260509090716 | 59 | 202 | 5.2 | 7.0 | 0.00 | 0.00 | 0.00 | 81 | 1027.1 |
| 20260509090213 | 60 | 183 | 4.3 | 5.2 | 0.00 | 0.00 | 0.00 | 81 | 1027.1 |
| 20260509085711 | 60 | 184 | 3.5 | 5.2 | 0.00 | 0.00 | 0.00 | 81 | 1027.1 |
| 20260509085207 | 60 | 177 | 2.6 | 5.2 | 0.00 | 0.00 | 0.00 | 81 | 1026.9 |
| 20260509084704 | 60 | 176 | 2.6 | 7.0 | 0.00 | 0.00 | 0.00 | 81 | 1027.0 |
| 20260509084201 | 60 | 150 | 1.7 | 5.2 | 0.00 | 0.00 | 0.00 | 80 | 1027.0 |
| 20260509083659 | 60 | 143 | 5.2 | 7.8 | 0.00 | 0.00 | 0.00 | 80 | 1027.1 |
| 20260509083155 | 60 | 138 | 4.3 | 5.2 | 0.00 | 0.00 | 0.00 | 80 | 1027.0 |
| 20260509082652 | 60 | 150 | 4.3 | 6.1 | 0.00 | 0.00 | 0.00 | 79 | 1027.0 |
| 20260509082148 | 60 | 154 | 4.3 | 7.0 | 0.00 | 0.00 | 0.00 | 79 | 1026.8 |
| 20260509081645 | 60 | 168 | 6.1 | 8.7 | 0.00 | 0.00 | 0.00 | 79 | 1026.9 |
| 20260509081143 | 60 | 178 | 6.1 | 7.0 | 0.00 | 0.00 | 0.00 | 78 | 1026.6 |
| 20260509080641 | 61 | 174 | 4.3 | 8.7 | 0.00 | 0.00 | 0.00 | 78 | 1026.6 |
| 20260509080138 | 61 | 149 | 4.3 | 7.0 | 0.00 | 0.00 | 0.00 | 78 | 1026.6 |
| 20260509075636 | 61 | 155 | 5.2 | 7.8 | 0.00 | 0.00 | 0.00 | 77 | 1026.7 |
| 20260509075134 | 61 | 163 | 4.3 | 7.0 | 0.00 | 0.00 | 0.00 | 76 | 1026.5 |
| 20260509074631 | 62 | 181 | 5.2 | 7.8 | 0.00 | 0.00 | 0.00 | 76 | 1026.7 |
| 20260509074127 | 62 | 146 | 7.0 | 7.8 | 0.00 | 0.00 | 0.00 | 76 | 1026.5 |
| 20260509073624 | 62 | 122 | 4.3 | 8.7 | 0.00 | 0.00 | 0.00 | 76 | 1026.6 |
| 20260509073120 | 62 | 217 | 2.6 | 6.1 | 0.00 | 0.00 | 0.00 | 77 | 1026.4 |
| 20260509072617 | 62 | 198 | 1.7 | 6.1 | 0.00 | 0.00 | 0.00 | 77 | 1026.4 |
| 20260509072114 | 62 | 200 | 3.5 | 6.1 | 0.00 | 0.00 | 0.00 | 77 | 1026.4 |
| 20260509071610 | 62 | 188 | 3.5 | 6.1 | 0.00 | 0.00 | 0.00 | 78 | 1026.4 |
| 20260509071108 | 61 | 171 | 4.3 | 7.0 | 0.00 | 0.00 | 0.00 | 78 | 1026.4 |
| 20260509070605 | 62 | 142 | 3.5 | 6.1 | 0.00 | 0.00 | 0.00 | 79 | 1026.6 |
| 20260509070101 | 62 | 166 | 4.3 | 6.1 | 0.00 | 0.00 | 0.00 | 78 | 1026.2 |
| 20260509065556 | 62 | 162 | 5.2 | 6.1 | 0.00 | 0.00 | 0.00 | 78 | 1026.4 |
| 20260509065053 | 62 | 175 | 6.1 | 7.8 | 0.00 | 0.00 | 0.00 | 79 | 1026.3 |
| 20260509064550 | 61 | 176 | 3.5 | 6.1 | 0.00 | 0.00 | 0.00 | 79 | 1026.3 |
| 20260509064048 | 61 | 130 | 3.5 | 4.3 | 0.00 | 0.00 | 0.00 | 80 | 1026.3 |
| 20260509063544 | 61 | 165 | 3.5 | 7.0 | 0.00 | 0.00 | 0.00 | 80 | 1026.2 |
| 20260509063041 | 61 | 192 | 7.0 | 8.7 | 0.00 | 0.00 | 0.00 | 81 | 1026.3 |
| 20260509062538 | 61 | 182 | 6.1 | 7.8 | 0.00 | 0.00 | 0.00 | 83 | 1026.3 |
| 20260509062036 | 61 | 216 | 1.7 | 2.6 | 0.00 | 0.00 | 0.00 | 84 | 1026.2 |
| 20260509061532 | 61 | 210 | 2.6 | 2.6 | 0.00 | 0.00 | 0.00 | 85 | 1026.0 |
| 20260509061030 | 62 | 227 | 1.7 | 1.7 | 0.00 | 0.00 | 0.00 | 85 | 1026.0 |
| 20260509060527 | 61 | 191 | 2.6 | 6.1 | 0.00 | 0.00 | 0.00 | 85 | 1026.2 |
| 20260509060023 | 62 | 160 | 6.1 | 8.7 | 0.00 | 0.00 | 0.00 | 84 | 1026.1 |
| 20260509055518 | 63 | 188 | 7.0 | 9.6 | 0.00 | 0.00 | 0.00 | 83 | 1026.3 |
| 20260509055015 | 63 | 219 | 7.8 | 11.3 | 0.00 | 0.00 | 0.00 | 81 | 1026.2 |
| 20260509054512 | 63 | 233 | 6.1 | 12.2 | 0.00 | 0.00 | 0.00 | 80 | 1026.1 |
| 20260509054010 | 63 | 248 | 7.0 | 13.0 | 0.00 | 0.00 | 0.00 | 80 | 1026.3 |
| 20260509053508 | 63 | 252 | 9.6 | 12.2 | 0.00 | 0.00 | 0.00 | 80 | 1026.2 |
| 20260509053005 | 63 | 232 | 3.5 | 9.6 | 0.00 | 0.00 | 0.00 | 80 | 1026.1 |
| 20260509052502 | 63 | 221 | 6.1 | 7.8 | 0.00 | 0.00 | 0.00 | 79 | 1026.4 |
| 20260509052000 | 62 | 242 | 3.5 | 7.8 | 0.00 | 0.00 | 0.00 | 79 | 1026.2 |
| 20260509051457 | 63 | 238 | 6.1 | 8.7 | 0.00 | 0.00 | 0.00 | 79 | 1026.3 |
| 20260509050954 | 63 | 223 | 5.2 | 7.8 | 0.00 | 0.00 | 0.00 | 81 | 1026.1 |
| 20260509050451 | 62 | 253 | 7.8 | 12.2 | 0.00 | 0.00 | 0.00 | 81 | 1026.2 |
| 20260509045947 | 63 | 244 | 7.0 | 8.7 | 0.00 | 0.00 | 0.00 | 79 | 1026.4 |
| 20260509045445 | 62 | 240 | 4.3 | 8.7 | 0.00 | 0.00 | 0.00 | 80 | 1026.2 |